createdAt,value
2022-10-05T00:02:28.834Z,26.02
2022-10-05T00:05:28.548Z,26.02
2022-10-05T00:08:20.959Z,26.02
2022-10-05T00:11:10.021Z,26.00
2022-10-05T00:13:59.677Z,26.02
2022-10-05T00:16:51.032Z,26.03
2022-10-05T00:19:40.277Z,26.01
2022-10-05T00:22:33.592Z,26.01
2022-10-05T00:25:23.588Z,26.02
2022-10-05T00:28:23.178Z,26.02
2022-10-05T00:31:17.069Z,26.02
2022-10-05T00:34:05.715Z,26.01
2022-10-05T00:36:55.414Z,26.01
2022-10-05T00:39:48.200Z,26.01
2022-10-05T00:42:42.098Z,26.00
2022-10-05T00:45:33.292Z,26.00
2022-10-05T00:48:27.140Z,25.98
2022-10-05T00:51:25.817Z,25.97
2022-10-05T00:54:25.082Z,25.97
2022-10-05T00:57:28.231Z,25.98
2022-10-05T01:00:19.437Z,25.97
2022-10-05T01:03:11.766Z,25.98
2022-10-05T01:06:11.139Z,25.96
2022-10-05T01:09:05.501Z,25.96
2022-10-05T01:11:59.261Z,25.97
2022-10-05T01:14:54.600Z,25.93
2022-10-05T01:17:48.533Z,25.92
2022-10-05T01:20:45.516Z,25.91
2022-10-05T01:24:21.471Z,25.94
2022-10-05T01:27:40.576Z,25.93
2022-10-05T01:30:30.421Z,25.86
2022-10-05T01:33:22.800Z,25.86
2022-10-05T01:36:14.893Z,25.87
2022-10-05T01:39:08.220Z,25.87
2022-10-05T01:42:06.865Z,25.86
2022-10-05T01:45:01.500Z,25.87
2022-10-05T01:47:52.100Z,25.86
2022-10-05T01:50:47.867Z,25.84
2022-10-05T01:53:46.108Z,25.88
2022-10-05T01:56:41.184Z,25.85
2022-10-05T01:59:38.438Z,25.86
2022-10-05T02:02:30.794Z,25.87
2022-10-05T02:05:22.328Z,25.84
2022-10-05T02:08:14.509Z,25.83
2022-10-05T02:11:05.345Z,25.87
2022-10-05T02:13:57.626Z,25.84
2022-10-05T02:16:48.840Z,25.83
2022-10-05T02:19:42.905Z,25.83
2022-10-05T02:22:34.129Z,25.83
2022-10-05T02:25:25.363Z,25.82
2022-10-05T02:28:17.320Z,25.83
2022-10-05T02:31:09.020Z,25.83
2022-10-05T02:34:21.749Z,25.81
2022-10-05T02:37:19.968Z,25.80
2022-10-05T02:40:20.472Z,25.82
2022-10-05T02:43:18.528Z,25.79
2022-10-05T02:46:13.738Z,25.82
2022-10-05T02:49:13.982Z,25.80
2022-10-05T02:52:07.817Z,25.81
2022-10-05T02:55:02.290Z,25.83
2022-10-05T02:57:54.953Z,25.83
2022-10-05T03:00:48.021Z,25.81
2022-10-05T03:03:40.281Z,25.80
2022-10-05T03:06:33.529Z,25.81
2022-10-05T03:09:24.262Z,25.83
2022-10-05T03:12:27.532Z,25.83
2022-10-05T03:15:24.862Z,25.82
2022-10-05T03:18:21.673Z,25.81
2022-10-05T03:21:20.834Z,25.79
2022-10-05T03:24:24.432Z,25.82
2022-10-05T03:27:24.019Z,25.80
2022-10-05T03:30:15.742Z,25.79
2022-10-05T03:33:09.348Z,25.77
2022-10-05T03:36:04.049Z,25.75
2022-10-05T03:38:58.822Z,25.78
2022-10-05T03:41:50.066Z,25.77
2022-10-05T03:44:46.964Z,25.79
2022-10-05T03:47:41.506Z,25.76
2022-10-05T03:50:40.647Z,25.76
2022-10-05T03:53:31.747Z,25.78
2022-10-05T03:56:31.297Z,25.77
2022-10-05T03:59:22.741Z,25.77
2022-10-05T04:02:26.857Z,25.79
2022-10-05T04:05:17.663Z,25.77
2022-10-05T04:08:10.273Z,25.75
2022-10-05T04:11:00.806Z,25.76
2022-10-05T04:13:52.761Z,25.77
2022-10-05T04:16:43.860Z,25.73
2022-10-05T04:19:38.252Z,25.55
2022-10-05T04:22:30.425Z,25.39
2022-10-05T04:25:20.446Z,25.32
2022-10-05T04:28:13.786Z,25.29
2022-10-05T04:31:04.414Z,25.38
2022-10-05T04:34:01.029Z,25.40
2022-10-05T04:36:59.308Z,25.41
2022-10-05T04:39:56.277Z,25.48
2022-10-05T04:42:49.826Z,25.49
2022-10-05T04:45:59.020Z,25.47
2022-10-05T04:49:07.747Z,25.45
2022-10-05T04:52:00.961Z,25.45
2022-10-05T04:54:58.914Z,25.46
2022-10-05T04:57:55.295Z,25.52
2022-10-05T05:00:51.693Z,25.50
2022-10-05T05:03:48.432Z,25.51
2022-10-05T05:06:40.307Z,25.53
2022-10-05T05:09:47.943Z,25.57
2022-10-05T05:12:44.426Z,25.55
2022-10-05T05:15:42.976Z,25.56
2022-10-05T05:18:50.409Z,25.58
2022-10-05T05:21:46.324Z,25.55
2022-10-05T05:24:43.517Z,25.57
2022-10-05T05:27:42.087Z,25.57
2022-10-05T05:30:38.449Z,25.52
2022-10-05T05:33:33.641Z,25.52
2022-10-05T05:36:36.691Z,25.50
2022-10-05T05:39:26.218Z,25.53
2022-10-05T05:42:24.876Z,25.53
2022-10-05T05:45:18.655Z,25.54
2022-10-05T05:48:15.377Z,25.53
2022-10-05T05:51:08.339Z,25.54
2022-10-05T05:54:02.082Z,25.51
2022-10-05T05:56:54.651Z,25.50
2022-10-05T05:59:53.941Z,25.48
2022-10-05T06:02:44.845Z,25.51
2022-10-05T06:05:35.703Z,25.49
2022-10-05T06:08:29.716Z,25.48
2022-10-05T06:11:21.352Z,25.48
2022-10-05T06:14:13.410Z,25.52
2022-10-05T06:17:06.787Z,25.49
2022-10-05T06:20:02.421Z,25.46
2022-10-05T06:22:53.947Z,25.51
2022-10-05T06:25:50.286Z,25.48
2022-10-05T06:28:38.889Z,25.48
2022-10-05T06:31:39.017Z,25.49
2022-10-05T06:34:49.605Z,25.48
2022-10-05T06:37:58.495Z,25.49
2022-10-05T06:40:58.693Z,25.45
2022-10-05T06:43:57.073Z,25.44
2022-10-05T06:46:55.341Z,25.43
2022-10-05T06:49:52.842Z,25.43
2022-10-05T06:52:52.088Z,25.44
2022-10-05T06:55:44.961Z,25.50
2022-10-05T06:58:44.287Z,25.49
2022-10-05T07:01:42.488Z,25.51
2022-10-05T07:04:52.719Z,25.50
2022-10-05T07:07:46.427Z,25.53
2022-10-05T07:10:41.549Z,25.54
2022-10-05T07:14:00.940Z,25.54
2022-10-05T07:17:01.409Z,25.54
2022-10-05T07:19:57.989Z,25.57
2022-10-05T07:22:56.395Z,25.59
2022-10-05T07:25:50.156Z,25.62
2022-10-05T07:28:46.213Z,25.61
2022-10-05T07:31:38.010Z,25.61
2022-10-05T07:34:37.857Z,25.59
2022-10-05T07:37:50.197Z,25.64
2022-10-05T07:40:42.368Z,25.65
2022-10-05T07:44:00.604Z,25.63
2022-10-05T07:46:51.855Z,25.63
2022-10-05T07:49:48.871Z,25.65
2022-10-05T07:52:41.656Z,25.66
2022-10-05T07:55:35.302Z,25.67
2022-10-05T07:58:29.451Z,25.68
2022-10-05T08:01:21.964Z,25.70
2022-10-05T08:04:15.380Z,25.68
2022-10-05T08:07:06.899Z,25.66
2022-10-05T08:10:01.189Z,25.67
2022-10-05T08:12:56.134Z,25.68
2022-10-05T08:15:48.354Z,25.69
2022-10-05T08:18:44.379Z,25.67
2022-10-05T08:21:35.692Z,25.68
2022-10-05T08:24:35.634Z,25.67
2022-10-05T08:27:28.192Z,25.68
2022-10-05T08:30:17.834Z,25.68
2022-10-05T08:33:10.905Z,25.69
2022-10-05T08:36:06.234Z,25.70
2022-10-05T08:38:56.909Z,25.70
2022-10-05T08:42:03.628Z,25.73
2022-10-05T08:45:17.856Z,25.71
2022-10-05T08:48:54.022Z,25.73
2022-10-05T08:52:09.075Z,25.73
2022-10-05T08:55:19.177Z,25.76
2022-10-05T08:58:35.669Z,25.75
2022-10-05T09:01:31.796Z,25.76
2022-10-05T09:04:43.872Z,25.76
2022-10-05T09:08:20.290Z,25.75
2022-10-05T09:11:13.412Z,25.75
2022-10-05T09:14:23.400Z,25.75
2022-10-05T09:17:28.355Z,25.76
2022-10-05T09:20:28.547Z,25.77
2022-10-05T09:23:31.378Z,25.79
2022-10-05T09:26:44.137Z,25.82
2022-10-05T09:30:07.234Z,25.83
2022-10-05T09:33:26.071Z,25.87
2022-10-05T09:36:47.742Z,25.85
2022-10-05T09:39:44.858Z,25.86
2022-10-05T09:42:52.418Z,25.87
2022-10-05T09:46:13.251Z,25.88
2022-10-05T09:49:22.824Z,25.89
2022-10-05T09:52:19.953Z,25.89
2022-10-05T09:55:32.607Z,25.91
2022-10-05T09:58:39.499Z,25.90
2022-10-05T10:01:51.714Z,25.89
2022-10-05T10:05:08.145Z,25.91
2022-10-05T10:08:04.765Z,25.92
2022-10-05T10:11:22.803Z,25.93
2022-10-05T10:14:49.608Z,25.93
2022-10-05T10:18:01.747Z,25.94
2022-10-05T10:21:12.947Z,25.97
2022-10-05T10:24:06.775Z,25.97
2022-10-05T10:27:13.576Z,26.00
2022-10-05T10:30:19.859Z,25.98
2022-10-05T10:33:32.596Z,26.00
2022-10-05T10:36:27.555Z,26.00
2022-10-05T10:39:23.118Z,26.02
2022-10-05T10:42:28.800Z,26.03
2022-10-05T10:45:22.846Z,26.04
2022-10-05T10:48:32.969Z,26.07
2022-10-05T10:51:57.642Z,26.04
2022-10-05T10:55:05.363Z,26.07
2022-10-05T10:58:15.754Z,26.06
2022-10-05T11:01:13.753Z,26.07
2022-10-05T11:04:24.946Z,26.07
2022-10-05T11:07:26.535Z,26.07
2022-10-05T11:10:31.079Z,26.09
2022-10-05T11:13:40.657Z,26.08
2022-10-05T11:17:02.706Z,26.06
2022-10-05T11:20:03.573Z,26.08
2022-10-05T11:23:11.654Z,26.06
2022-10-05T11:26:11.102Z,26.09
2022-10-05T11:29:31.319Z,26.05
2022-10-05T11:32:35.853Z,26.09
2022-10-05T11:35:34.441Z,26.10
2022-10-05T11:38:59.230Z,26.09
2022-10-05T11:42:26.430Z,26.09
2022-10-05T11:45:21.805Z,26.09
2022-10-05T11:48:26.340Z,26.07
2022-10-05T11:51:29.255Z,26.06
2022-10-05T11:54:26.506Z,26.06
2022-10-05T11:57:19.761Z,26.06
2022-10-05T12:00:15.048Z,26.06
2022-10-05T12:03:23.031Z,26.05
2022-10-05T12:06:23.733Z,26.06
2022-10-05T12:09:30.475Z,26.06
2022-10-05T12:12:22.869Z,26.06
2022-10-05T12:15:20.735Z,26.08
2022-10-05T12:18:14.586Z,26.09
2022-10-05T12:21:06.524Z,26.09
2022-10-05T12:23:58.035Z,26.09
2022-10-05T12:26:50.957Z,26.13
2022-10-05T12:29:46.488Z,26.10
2022-10-05T12:32:39.490Z,26.10
2022-10-05T12:35:47.317Z,26.10
2022-10-05T12:38:40.196Z,26.10
2022-10-05T12:41:33.024Z,26.12
2022-10-05T12:44:46.377Z,26.09
2022-10-05T12:47:42.037Z,26.11
2022-10-05T12:50:36.763Z,26.11
2022-10-05T12:53:35.542Z,26.11
2022-10-05T12:56:32.544Z,26.11
2022-10-05T12:59:32.551Z,26.10
2022-10-05T13:02:33.329Z,26.12
2022-10-05T13:05:31.218Z,26.11
2022-10-05T13:08:26.065Z,26.13
2022-10-05T13:11:19.136Z,26.11
2022-10-05T13:14:17.725Z,26.12
2022-10-05T13:17:09.165Z,26.14
2022-10-05T13:20:03.618Z,26.13
2022-10-05T13:22:58.559Z,26.16
2022-10-05T13:25:53.800Z,26.15
2022-10-05T13:28:45.655Z,26.16
2022-10-05T13:31:37.149Z,26.17
2022-10-05T13:34:31.101Z,26.16
2022-10-05T13:37:28.148Z,26.14
2022-10-05T13:40:23.396Z,26.14
2022-10-05T13:43:17.917Z,26.15
2022-10-05T13:46:09.150Z,26.12
2022-10-05T13:49:06.450Z,26.09
2022-10-05T13:52:00.329Z,26.16
2022-10-05T13:54:57.669Z,26.20
2022-10-05T13:57:53.359Z,26.26
2022-10-05T14:00:48.577Z,26.28
2022-10-05T14:03:38.550Z,26.20
2022-10-05T14:06:30.614Z,26.12
2022-10-05T14:09:30.711Z,26.10
2022-10-05T14:12:24.476Z,26.14
2022-10-05T14:15:22.209Z,26.09
2022-10-05T14:18:24.341Z,26.19
2022-10-05T14:21:23.107Z,26.31
2022-10-05T14:27:35.379Z,26.33
2022-10-05T14:30:25.696Z,26.31
2022-10-05T14:33:17.321Z,26.31
2022-10-05T14:36:12.264Z,26.30
2022-10-05T14:39:03.661Z,26.32
2022-10-05T14:41:52.233Z,26.39
2022-10-05T14:44:42.049Z,26.39
2022-10-05T14:47:34.251Z,26.33
2022-10-05T14:50:29.461Z,26.31
2022-10-05T14:53:21.203Z,26.35
2022-10-05T14:56:25.226Z,26.38
2022-10-05T14:59:23.388Z,26.39
2022-10-05T15:02:26.795Z,26.38
2022-10-05T15:05:18.141Z,26.42
2022-10-05T15:08:19.480Z,26.39
2022-10-05T15:11:09.719Z,26.40
2022-10-05T15:13:58.181Z,26.39
2022-10-05T15:16:46.985Z,26.33
2022-10-05T15:19:45.424Z,26.29
2022-10-05T15:22:42.687Z,26.32
2022-10-05T15:25:38.095Z,26.33
2022-10-05T15:28:34.046Z,26.35
2022-10-05T15:31:30.035Z,26.36
2022-10-05T15:34:22.643Z,26.37
2022-10-05T15:37:17.834Z,26.38
2022-10-05T15:40:09.055Z,26.37
2022-10-05T15:43:03.703Z,26.37
2022-10-05T15:46:01.193Z,26.39
2022-10-05T15:48:55.788Z,26.38
2022-10-05T15:51:53.416Z,26.39
2022-10-05T15:55:20.997Z,26.39
2022-10-05T15:58:47.880Z,26.42
2022-10-05T16:01:45.151Z,26.40
2022-10-05T16:04:43.025Z,26.39
2022-10-05T16:07:56.196Z,26.37
2022-10-05T16:10:47.084Z,26.37
2022-10-05T16:13:38.719Z,26.38
2022-10-05T16:16:31.209Z,26.37
2022-10-05T16:19:31.238Z,26.35
2022-10-05T16:22:23.931Z,26.35
2022-10-05T16:25:16.928Z,26.32
2022-10-05T16:28:18.546Z,26.32
2022-10-05T16:31:16.442Z,26.35
2022-10-05T16:34:10.784Z,26.30
2022-10-05T16:37:03.365Z,26.28
2022-10-05T16:39:56.045Z,26.20
2022-10-05T16:42:51.213Z,26.23
2022-10-05T16:45:52.236Z,26.27
2022-10-05T16:48:49.463Z,26.29
2022-10-05T16:51:44.543Z,26.27
2022-10-05T16:54:36.294Z,26.29
2022-10-05T16:57:26.776Z,26.29
2022-10-05T17:00:21.310Z,26.38
2022-10-05T17:03:18.263Z,26.34
2022-10-05T17:06:37.988Z,26.28
2022-10-05T17:09:50.807Z,26.30
2022-10-05T17:12:51.329Z,26.28
2022-10-05T17:15:50.668Z,26.26
2022-10-05T17:19:12.804Z,26.29
2022-10-05T17:22:03.100Z,26.28
2022-10-05T17:24:56.328Z,26.24
2022-10-05T17:27:52.979Z,26.24
2022-10-05T17:30:53.922Z,26.25
2022-10-05T17:34:30.915Z,26.27
2022-10-05T17:37:36.261Z,26.31
2022-10-05T17:40:37.678Z,26.30
2022-10-05T17:43:27.495Z,26.29
2022-10-05T17:46:45.717Z,26.31
2022-10-05T17:49:47.993Z,26.33
2022-10-05T17:53:10.381Z,26.37
2022-10-05T17:56:07.146Z,26.42
2022-10-05T17:59:00.166Z,26.44
2022-10-05T18:02:16.676Z,26.50
2022-10-05T18:05:26.049Z,26.54
2022-10-05T18:08:32.687Z,26.53
2022-10-05T18:11:37.118Z,26.54
2022-10-05T18:14:26.492Z,26.57
2022-10-05T18:17:16.266Z,26.57
2022-10-05T18:20:19.005Z,26.67
2022-10-05T18:23:35.983Z,26.69
2022-10-05T18:26:34.137Z,26.75
2022-10-05T18:29:49.821Z,26.82
2022-10-05T18:32:48.635Z,26.85
2022-10-05T18:35:46.885Z,26.88
2022-10-05T18:38:45.910Z,26.90
2022-10-05T18:41:45.564Z,26.96
2022-10-05T18:44:40.426Z,26.97
2022-10-05T18:47:32.991Z,26.99
2022-10-05T18:50:27.694Z,27.04
2022-10-05T18:53:24.421Z,27.03
2022-10-05T18:56:19.766Z,27.11
2022-10-05T18:59:24.302Z,27.07
2022-10-05T19:02:20.407Z,27.09
2022-10-05T19:05:45.773Z,27.09
2022-10-05T19:08:32.990Z,27.08
2022-10-05T19:11:27.866Z,27.10
2022-10-05T19:14:22.066Z,27.09
2022-10-05T19:17:20.993Z,27.11
2022-10-05T19:20:17.351Z,27.10
2022-10-05T19:23:23.923Z,27.16
2022-10-05T19:26:16.090Z,27.19
2022-10-05T19:29:14.314Z,27.16
2022-10-05T19:32:05.340Z,27.20
2022-10-05T19:35:05.267Z,27.22
2022-10-05T19:38:01.314Z,27.21
2022-10-05T19:40:57.763Z,27.24
2022-10-05T19:44:02.495Z,27.24
2022-10-05T19:46:57.659Z,27.18
2022-10-05T19:49:50.953Z,27.22
2022-10-05T19:52:49.006Z,27.21
2022-10-05T19:55:39.673Z,27.22
2022-10-05T19:58:29.516Z,27.20
2022-10-05T20:01:25.807Z,27.21
2022-10-05T20:04:35.291Z,27.20
2022-10-05T20:07:23.732Z,27.21
2022-10-05T20:10:29.029Z,27.20
2022-10-05T20:13:21.513Z,27.19
2022-10-05T20:16:36.766Z,27.17
2022-10-05T20:19:51.336Z,27.17
2022-10-05T20:22:46.331Z,27.15
2022-10-05T20:25:40.225Z,27.11
2022-10-05T20:28:32.200Z,27.15
2022-10-05T20:31:21.422Z,27.19
2022-10-05T20:34:09.893Z,27.14
2022-10-05T20:36:59.829Z,27.11
2022-10-05T20:39:48.265Z,27.14
2022-10-05T20:42:36.687Z,27.15
2022-10-05T20:45:25.411Z,27.14
2022-10-05T20:48:16.453Z,27.16
2022-10-05T20:51:04.952Z,27.11
2022-10-05T20:53:56.135Z,27.13
2022-10-05T20:56:45.813Z,27.16
2022-10-05T20:59:34.717Z,27.14
2022-10-05T21:02:23.217Z,27.12
2022-10-05T21:05:12.802Z,27.17
2022-10-05T21:08:01.729Z,27.22
2022-10-05T21:10:51.491Z,27.19
2022-10-05T21:13:44.590Z,27.20
2022-10-05T21:16:36.007Z,27.17
2022-10-05T21:19:24.623Z,27.15
2022-10-05T21:22:13.073Z,27.07
2022-10-05T21:25:02.362Z,27.09
2022-10-05T21:27:52.265Z,27.17
2022-10-05T21:30:40.725Z,27.20
2022-10-05T21:33:29.527Z,27.18
2022-10-05T21:36:22.477Z,27.18
2022-10-05T21:39:13.189Z,27.17
2022-10-05T21:42:01.582Z,27.09
2022-10-05T21:44:51.358Z,27.09
2022-10-05T21:47:39.771Z,27.05
2022-10-05T21:50:29.050Z,27.05
2022-10-05T21:53:18.848Z,27.01
2022-10-05T21:56:10.572Z,26.94
2022-10-05T21:58:59.252Z,26.93
2022-10-05T22:01:49.117Z,26.90
2022-10-05T22:04:37.987Z,26.81
2022-10-05T22:07:26.445Z,26.81
2022-10-05T22:10:16.304Z,26.79
2022-10-05T22:13:05.919Z,26.80
2022-10-05T22:15:55.352Z,26.75
2022-10-05T22:18:45.822Z,26.77
2022-10-05T22:21:37.943Z,26.74
2022-10-05T22:24:26.494Z,26.70
2022-10-05T22:27:15.061Z,26.64
2022-10-05T22:30:03.917Z,26.66
2022-10-05T22:32:52.359Z,26.65
2022-10-05T22:35:42.173Z,26.65
2022-10-05T22:38:31.307Z,26.61
2022-10-05T22:41:20.547Z,26.63
2022-10-05T22:44:09.074Z,26.60
2022-10-05T22:46:57.519Z,26.56
2022-10-05T22:49:46.002Z,26.58
2022-10-05T22:52:35.770Z,26.55
2022-10-05T22:55:24.556Z,26.52
2022-10-05T22:58:13.128Z,26.52
2022-10-05T23:01:03.649Z,26.51
2022-10-05T23:03:52.229Z,26.48
2022-10-05T23:06:41.060Z,26.47
2022-10-05T23:09:30.949Z,26.48
2022-10-05T23:12:19.427Z,26.52
2022-10-05T23:15:09.419Z,26.49
2022-10-05T23:17:57.878Z,26.48
2022-10-05T23:20:46.336Z,26.47
2022-10-05T23:23:37.996Z,26.46
2022-10-05T23:26:28.086Z,26.50
2022-10-05T23:29:16.526Z,26.48
2022-10-05T23:32:06.421Z,26.46
2022-10-05T23:34:56.431Z,26.44
2022-10-05T23:37:45.906Z,26.45
2022-10-05T23:40:34.469Z,26.41
2022-10-05T23:43:24.429Z,26.39
2022-10-05T23:46:13.691Z,26.40
2022-10-05T23:49:02.129Z,26.36
2022-10-05T23:51:50.636Z,26.35
2022-10-05T23:54:39.164Z,26.33
2022-10-05T23:57:27.611Z,26.34
